sensor_id;sensor_type;location;lat;lon;timestamp;pressure;altitude;pressure_sealevel;temperature;humidity
69879;BME280;57161;43.136;24.706;2023-02-17T00:01:01;100048.91;;;2.49;70.19
69879;BME280;57161;43.136;24.706;2023-02-17T00:03:26;100017.00;;;2.24;70.67
69879;BME280;57161;43.136;24.706;2023-02-17T00:05:52;100035.69;;;2.29;70.43
69879;BME280;57161;43.136;24.706;2023-02-17T00:08:17;100033.03;;;2.34;70.50
69879;BME280;57161;43.136;24.706;2023-02-17T00:10:43;100037.34;;;2.35;70.81
69879;BME280;57161;43.136;24.706;2023-02-17T00:13:08;100030.06;;;2.47;70.16
69879;BME280;57161;43.136;24.706;2023-02-17T00:15:37;100035.81;;;2.58;69.86
69879;BME280;57161;43.136;24.706;2023-02-17T00:18:03;100044.84;;;2.59;69.98
69879;BME280;57161;43.136;24.706;2023-02-17T00:20:28;100058.63;;;2.68;69.45
69879;BME280;57161;43.136;24.706;2023-02-17T00:22:54;100038.53;;;2.67;68.99
69879;BME280;57161;43.136;24.706;2023-02-17T00:25:20;100043.94;;;2.62;69.08
69879;BME280;57161;43.136;24.706;2023-02-17T00:27:45;100034.25;;;2.66;68.87
69879;BME280;57161;43.136;24.706;2023-02-17T00:30:11;100028.31;;;2.59;68.37
69879;BME280;57161;43.136;24.706;2023-02-17T00:32:36;100041.47;;;2.64;68.90
69879;BME280;57161;43.136;24.706;2023-02-17T00:35:02;100018.56;;;2.49;68.96
69879;BME280;57161;43.136;24.706;2023-02-17T00:37:27;100038.44;;;2.62;68.83
69879;BME280;57161;43.136;24.706;2023-02-17T00:39:53;100031.81;;;2.59;68.52
69879;BME280;57161;43.136;24.706;2023-02-17T00:42:18;100025.38;;;2.62;68.50
69879;BME280;57161;43.136;24.706;2023-02-17T00:44:44;100029.44;;;2.52;68.96
69879;BME280;57161;43.136;24.706;2023-02-17T00:47:09;100017.38;;;2.40;68.88
69879;BME280;57161;43.136;24.706;2023-02-17T00:49:35;100020.44;;;2.42;69.04
69879;BME280;57161;43.136;24.706;2023-02-17T00:52:01;100015.94;;;2.54;68.90
69879;BME280;57161;43.136;24.706;2023-02-17T00:54:28;100010.91;;;2.44;69.10
69879;BME280;57161;43.136;24.706;2023-02-17T00:56:54;100007.53;;;2.49;68.86
69879;BME280;57161;43.136;24.706;2023-02-17T00:59:19;100017.44;;;2.55;68.64
69879;BME280;57161;43.136;24.706;2023-02-17T01:01:45;100005.47;;;2.58;68.36
69879;BME280;57161;43.136;24.706;2023-02-17T01:04:10;100003.38;;;2.53;68.47
69879;BME280;57161;43.136;24.706;2023-02-17T01:06:38;99999.25;;;2.49;68.57
69879;BME280;57161;43.136;24.706;2023-02-17T01:09:05;100003.38;;;2.53;68.45
69879;BME280;57161;43.136;24.706;2023-02-17T01:11:32;99998.13;;;2.55;68.03
69879;BME280;57161;43.136;24.706;2023-02-17T01:14:00;99988.81;;;2.53;67.89
69879;BME280;57161;43.136;24.706;2023-02-17T01:16:29;99991.03;;;2.63;67.67
69879;BME280;57161;43.136;24.706;2023-02-17T01:18:58;99989.69;;;2.59;67.88
69879;BME280;57161;43.136;24.706;2023-02-17T01:21:25;99970.84;;;2.33;67.85
69879;BME280;57161;43.136;24.706;2023-02-17T01:23:53;99984.56;;;2.42;68.26
69879;BME280;57161;43.136;24.706;2023-02-17T01:26:22;99981.47;;;2.50;67.95
69879;BME280;57161;43.136;24.706;2023-02-17T01:28:49;99985.47;;;2.49;68.32
69879;BME280;57161;43.136;24.706;2023-02-17T01:31:15;99978.75;;;2.40;67.99
69879;BME280;57161;43.136;24.706;2023-02-17T01:33:41;99988.56;;;2.41;68.09
69879;BME280;57161;43.136;24.706;2023-02-17T01:36:09;99983.34;;;2.44;67.62
69879;BME280;57161;43.136;24.706;2023-02-17T01:38:35;99963.91;;;2.38;67.63
69879;BME280;57161;43.136;24.706;2023-02-17T01:41:02;99977.31;;;2.54;66.63
69879;BME280;57161;43.136;24.706;2023-02-17T01:43:28;99980.63;;;2.58;66.60
69879;BME280;57161;43.136;24.706;2023-02-17T01:46:02;99974.41;;;2.72;66.04
69879;BME280;57161;43.136;24.706;2023-02-17T01:48:48;99958.31;;;2.71;65.51
69879;BME280;57161;43.136;24.706;2023-02-17T01:51:23;99972.44;;;2.88;65.20
69879;BME280;57161;43.136;24.706;2023-02-17T01:53:54;99973.59;;;2.81;65.80
69879;BME280;57161;43.136;24.706;2023-02-17T01:56:22;99959.84;;;2.72;65.93
69879;BME280;57161;43.136;24.706;2023-02-17T01:59:02;99971.19;;;2.74;66.34
69879;BME280;57161;43.136;24.706;2023-02-17T02:01:30;99965.25;;;2.66;66.07
69879;BME280;57161;43.136;24.706;2023-02-17T02:03:57;99965.75;;;2.65;65.93
69879;BME280;57161;43.136;24.706;2023-02-17T02:06:26;99972.22;;;2.62;66.13
69879;BME280;57161;43.136;24.706;2023-02-17T02:08:58;99970.38;;;2.59;66.41
69879;BME280;57161;43.136;24.706;2023-02-17T02:11:25;99963.75;;;2.41;66.57
69879;BME280;57161;43.136;24.706;2023-02-17T02:13:51;99972.66;;;2.36;67.13
69879;BME280;57161;43.136;24.706;2023-02-17T02:16:26;99974.19;;;2.37;66.93
69879;BME280;57161;43.136;24.706;2023-02-17T02:19:02;99968.56;;;2.32;67.00
69879;BME280;57161;43.136;24.706;2023-02-17T02:27:14;99969.38;;;2.23;67.11
69879;BME280;57161;43.136;24.706;2023-02-17T02:35:31;99915.94;;;1.88;66.96
69879;BME280;57161;43.136;24.706;2023-02-17T02:38:05;99979.44;;;2.26;66.94
69879;BME280;57161;43.136;24.706;2023-02-17T02:40:36;99976.88;;;2.23;67.29
69879;BME280;57161;43.136;24.706;2023-02-17T02:43:05;99985.16;;;2.23;67.23
69879;BME280;57161;43.136;24.706;2023-02-17T02:45:31;99980.75;;;2.16;67.33
69879;BME280;57161;43.136;24.706;2023-02-17T02:47:57;99987.91;;;2.23;66.68
69879;BME280;57161;43.136;24.706;2023-02-17T02:53:50;99973.66;;;2.24;66.46
69879;BME280;57161;43.136;24.706;2023-02-17T03:03:21;99995.88;;;2.21;67.08
69879;BME280;57161;43.136;24.706;2023-02-17T03:08:25;99991.34;;;2.08;67.64
69879;BME280;57161;43.136;24.706;2023-02-17T03:10:53;99999.31;;;2.06;67.10
69879;BME280;57161;43.136;24.706;2023-02-17T03:13:20;99974.38;;;2.01;67.21
69879;BME280;57161;43.136;24.706;2023-02-17T03:15:46;99990.63;;;1.99;67.36
69879;BME280;57161;43.136;24.706;2023-02-17T03:18:12;99993.22;;;2.02;66.77
69879;BME280;57161;43.136;24.706;2023-02-17T03:20:44;99986.94;;;2.02;67.14
69879;BME280;57161;43.136;24.706;2023-02-17T03:23:10;99992.28;;;2.05;66.87
69879;BME280;57161;43.136;24.706;2023-02-17T03:25:36;99992.34;;;1.96;67.18
69879;BME280;57161;43.136;24.706;2023-02-17T03:28:01;99999.50;;;1.94;67.45
69879;BME280;57161;43.136;24.706;2023-02-17T03:30:27;99983.97;;;1.82;67.83
69879;BME280;57161;43.136;24.706;2023-02-17T03:32:53;99987.59;;;1.88;67.32
69879;BME280;57161;43.136;24.706;2023-02-17T03:35:19;99980.28;;;1.75;67.78
69879;BME280;57161;43.136;24.706;2023-02-17T03:37:44;99988.19;;;1.92;67.61
69879;BME280;57161;43.136;24.706;2023-02-17T03:40:10;99992.00;;;1.94;67.57
69879;BME280;57161;43.136;24.706;2023-02-17T03:42:36;99991.09;;;1.97;67.65
69879;BME280;57161;43.136;24.706;2023-02-17T03:45:02;99970.50;;;1.74;67.73
69879;BME280;57161;43.136;24.706;2023-02-17T03:47:28;99989.78;;;1.84;67.50
69879;BME280;57161;43.136;24.706;2023-02-17T03:49:53;99985.44;;;1.92;67.75
69879;BME280;57161;43.136;24.706;2023-02-17T03:52:19;99984.56;;;1.86;67.53
69879;BME280;57161;43.136;24.706;2023-02-17T03:54:44;99997.84;;;1.96;67.56
69879;BME280;57161;43.136;24.706;2023-02-17T03:57:10;99973.09;;;1.78;67.11
69879;BME280;57161;43.136;24.706;2023-02-17T03:59:36;99990.34;;;1.97;67.24
69879;BME280;57161;43.136;24.706;2023-02-17T04:02:02;99984.97;;;1.93;67.25
69879;BME280;57161;43.136;24.706;2023-02-17T04:04:27;99977.53;;;1.85;67.19
69879;BME280;57161;43.136;24.706;2023-02-17T04:06:53;100002.88;;;1.98;67.34
69879;BME280;57161;43.136;24.706;2023-02-17T04:09:18;99998.16;;;1.89;67.39
69879;BME280;57161;43.136;24.706;2023-02-17T04:11:44;99983.03;;;1.85;66.95
69879;BME280;57161;43.136;24.706;2023-02-17T04:14:09;99992.66;;;1.89;67.04
69879;BME280;57161;43.136;24.706;2023-02-17T04:16:35;99989.72;;;1.93;66.98
69879;BME280;57161;43.136;24.706;2023-02-17T04:19:06;100005.94;;;2.00;66.70
69879;BME280;57161;43.136;24.706;2023-02-17T04:21:32;99997.19;;;2.01;66.69
69879;BME280;57161;43.136;24.706;2023-02-17T04:24:01;99991.41;;;1.99;66.41
69879;BME280;57161;43.136;24.706;2023-02-17T04:26:28;99968.13;;;1.91;66.42
69879;BME280;57161;43.136;24.706;2023-02-17T04:28:54;99996.09;;;2.08;66.82
69879;BME280;57161;43.136;24.706;2023-02-17T04:31:19;99968.03;;;1.86;66.27
69879;BME280;57161;43.136;24.706;2023-02-17T04:33:45;99969.06;;;1.97;66.68
69879;BME280;57161;43.136;24.706;2023-02-17T04:36:11;99992.88;;;2.09;66.78
69879;BME280;57161;43.136;24.706;2023-02-17T04:38:37;99980.38;;;1.99;66.61
69879;BME280;57161;43.136;24.706;2023-02-17T04:41:03;99991.88;;;1.98;66.64
69879;BME280;57161;43.136;24.706;2023-02-17T04:43:30;99978.69;;;1.93;66.25
69879;BME280;57161;43.136;24.706;2023-02-17T04:45:56;99989.25;;;1.94;66.58
69879;BME280;57161;43.136;24.706;2023-02-17T04:48:22;99989.47;;;1.82;67.10
69879;BME280;57161;43.136;24.706;2023-02-17T04:50:48;100002.50;;;1.72;67.30
69879;BME280;57161;43.136;24.706;2023-02-17T04:53:14;100000.38;;;1.67;67.45
69879;BME280;57161;43.136;24.706;2023-02-17T04:55:40;99991.09;;;1.46;67.89
69879;BME280;57161;43.136;24.706;2023-02-17T04:58:06;100012.50;;;1.51;68.00
69879;BME280;57161;43.136;24.706;2023-02-17T05:00:31;100009.59;;;1.45;68.04
69879;BME280;57161;43.136;24.706;2023-02-17T05:02:57;100003.34;;;1.36;68.46
69879;BME280;57161;43.136;24.706;2023-02-17T05:05:23;100016.66;;;1.46;68.42
69879;BME280;57161;43.136;24.706;2023-02-17T05:07:48;100008.06;;;1.44;67.97
69879;BME280;57161;43.136;24.706;2023-02-17T05:10:15;99954.00;;;1.14;68.10
69879;BME280;57161;43.136;24.706;2023-02-17T05:12:41;100017.56;;;1.53;68.07
69879;BME280;57161;43.136;24.706;2023-02-17T05:15:07;100019.56;;;1.52;67.92
69879;BME280;57161;43.136;24.706;2023-02-17T05:17:33;99997.09;;;1.35;68.26
69879;BME280;57161;43.136;24.706;2023-02-17T05:19:59;100024.28;;;1.52;68.09
69879;BME280;57161;43.136;24.706;2023-02-17T05:22:26;100003.66;;;1.38;68.14
69879;BME280;57161;43.136;24.706;2023-02-17T05:24:51;100025.81;;;1.53;68.34
69879;BME280;57161;43.136;24.706;2023-02-17T05:27:17;100017.59;;;1.34;68.26
69879;BME280;57161;43.136;24.706;2023-02-17T05:29:43;100031.78;;;1.42;68.47
69879;BME280;57161;43.136;24.706;2023-02-17T05:32:08;100040.22;;;1.47;68.58
69879;BME280;57161;43.136;24.706;2023-02-17T05:34:34;100043.41;;;1.46;68.90
69879;BME280;57161;43.136;24.706;2023-02-17T05:37:00;100046.03;;;1.40;69.08
69879;BME280;57161;43.136;24.706;2023-02-17T05:39:25;100052.28;;;1.41;68.67
69879;BME280;57161;43.136;24.706;2023-02-17T05:41:51;100032.88;;;1.35;68.46
69879;BME280;57161;43.136;24.706;2023-02-17T05:44:16;100039.16;;;1.36;68.12
69879;BME280;57161;43.136;24.706;2023-02-17T05:46:41;100031.03;;;1.41;67.95
69879;BME280;57161;43.136;24.706;2023-02-17T05:49:07;100069.41;;;1.72;67.45
69879;BME280;57161;43.136;24.706;2023-02-17T05:51:32;100039.72;;;1.67;67.27
69879;BME280;57161;43.136;24.706;2023-02-17T05:53:58;100059.28;;;1.78;67.09
69879;BME280;57161;43.136;24.706;2023-02-17T05:56:23;100046.88;;;1.74;66.72
69879;BME280;57161;43.136;24.706;2023-02-17T05:58:49;100056.97;;;1.86;66.56
69879;BME280;57161;43.136;24.706;2023-02-17T06:01:14;100048.09;;;1.82;66.55
69879;BME280;57161;43.136;24.706;2023-02-17T06:03:40;100059.19;;;2.06;66.22
69879;BME280;57161;43.136;24.706;2023-02-17T06:06:06;100069.09;;;2.22;65.84
69879;BME280;57161;43.136;24.706;2023-02-17T06:08:32;100064.91;;;2.35;65.09
69879;BME280;57161;43.136;24.706;2023-02-17T06:10:58;100039.78;;;2.33;64.58
69879;BME280;57161;43.136;24.706;2023-02-17T06:13:23;100065.75;;;2.51;64.90
69879;BME280;57161;43.136;24.706;2023-02-17T06:15:49;100075.53;;;2.61;64.26
69879;BME280;57161;43.136;24.706;2023-02-17T06:18:14;100066.78;;;2.62;64.46
69879;BME280;57161;43.136;24.706;2023-02-17T06:20:40;100088.75;;;2.81;63.87
69879;BME280;57161;43.136;24.706;2023-02-17T06:23:06;100080.09;;;2.88;63.38
69879;BME280;57161;43.136;24.706;2023-02-17T06:25:31;100097.97;;;3.01;63.08
69879;BME280;57161;43.136;24.706;2023-02-17T06:27:57;100078.75;;;3.07;62.85
69879;BME280;57161;43.136;24.706;2023-02-17T06:30:23;100096.72;;;3.26;62.67
69879;BME280;57161;43.136;24.706;2023-02-17T06:32:49;100100.88;;;3.46;62.32
69879;BME280;57161;43.136;24.706;2023-02-17T06:35:14;100094.91;;;3.62;61.82
69879;BME280;57161;43.136;24.706;2023-02-17T06:37:40;100093.47;;;3.81;61.73
69879;BME280;57161;43.136;24.706;2023-02-17T06:40:06;100102.53;;;3.97;60.94
69879;BME280;57161;43.136;24.706;2023-02-17T06:42:32;100099.09;;;4.16;60.68
69879;BME280;57161;43.136;24.706;2023-02-17T06:44:58;100062.84;;;4.14;59.80
69879;BME280;57161;43.136;24.706;2023-02-17T06:47:25;100068.75;;;4.22;59.23
69879;BME280;57161;43.136;24.706;2023-02-17T06:49:50;100088.00;;;4.46;59.32
69879;BME280;57161;43.136;24.706;2023-02-17T06:52:16;100084.94;;;4.44;59.18
69879;BME280;57161;43.136;24.706;2023-02-17T06:54:41;100087.47;;;4.62;59.20
69879;BME280;57161;43.136;24.706;2023-02-17T06:57:07;100081.72;;;4.66;59.35
69879;BME280;57161;43.136;24.706;2023-02-17T06:59:32;100103.34;;;4.82;58.73
69879;BME280;57161;43.136;24.706;2023-02-17T07:01:58;100099.13;;;4.87;58.29
69879;BME280;57161;43.136;24.706;2023-02-17T07:04:23;100111.19;;;5.04;58.25
69879;BME280;57161;43.136;24.706;2023-02-17T07:06:49;100092.66;;;5.10;57.52
69879;BME280;57161;43.136;24.706;2023-02-17T07:09:14;100096.78;;;5.20;57.24
69879;BME280;57161;43.136;24.706;2023-02-17T07:11:40;100089.53;;;5.23;57.03
69879;BME280;57161;43.136;24.706;2023-02-17T07:14:06;100083.63;;;5.35;56.95
69879;BME280;57161;43.136;24.706;2023-02-17T07:16:32;100078.66;;;5.39;56.75
69879;BME280;57161;43.136;24.706;2023-02-17T07:18:57;100076.59;;;5.60;56.50
69879;BME280;57161;43.136;24.706;2023-02-17T07:21:23;100099.06;;;5.88;55.57
69879;BME280;57161;43.136;24.706;2023-02-17T07:23:49;100094.69;;;6.02;55.65
69879;BME280;57161;43.136;24.706;2023-02-17T07:26:14;100099.56;;;6.13;55.49
69879;BME280;57161;43.136;24.706;2023-02-17T07:28:40;100097.94;;;6.32;55.26
69879;BME280;57161;43.136;24.706;2023-02-17T07:31:13;100101.03;;;6.40;54.98
69879;BME280;57161;43.136;24.706;2023-02-17T07:33:39;100107.50;;;6.62;54.31
69879;BME280;57161;43.136;24.706;2023-02-17T07:36:11;100112.91;;;6.77;54.96
69879;BME280;57161;43.136;24.706;2023-02-17T07:38:37;100102.13;;;6.90;53.50
69879;BME280;57161;43.136;24.706;2023-02-17T07:41:08;100108.31;;;7.17;53.36
69879;BME280;57161;43.136;24.706;2023-02-17T07:43:34;100131.41;;;7.34;53.06
69879;BME280;57161;43.136;24.706;2023-02-17T07:46:00;100105.63;;;7.45;52.20
69879;BME280;57161;43.136;24.706;2023-02-17T07:48:26;100105.97;;;7.80;51.69
69879;BME280;57161;43.136;24.706;2023-02-17T07:50:51;100106.03;;;8.14;50.40
69879;BME280;57161;43.136;24.706;2023-02-17T07:53:17;100130.88;;;8.34;50.02
69879;BME280;57161;43.136;24.706;2023-02-17T07:55:42;100121.25;;;8.47;48.29
69879;BME280;57161;43.136;24.706;2023-02-17T07:58:07;100099.94;;;8.60;48.54
69879;BME280;57161;43.136;24.706;2023-02-17T08:00:33;100120.56;;;9.26;46.85
69879;BME280;57161;43.136;24.706;2023-02-17T08:02:58;100108.38;;;9.35;46.85
69879;BME280;57161;43.136;24.706;2023-02-17T08:05:24;100099.78;;;9.80;42.69
69879;BME280;57161;43.136;24.706;2023-02-17T08:07:49;100117.13;;;10.38;43.54
69879;BME280;57161;43.136;24.706;2023-02-17T08:10:36;100132.66;;;10.34;44.26
69879;BME280;57161;43.136;24.706;2023-02-17T08:13:21;100132.44;;;10.86;39.60
69879;BME280;57161;43.136;24.706;2023-02-17T08:15:46;100112.56;;;10.90;42.39
69879;BME280;57161;43.136;24.706;2023-02-17T08:18:12;100134.91;;;10.95;42.55
69879;BME280;57161;43.136;24.706;2023-02-17T08:20:38;100121.28;;;11.10;38.78
69879;BME280;57161;43.136;24.706;2023-02-17T08:23:03;100131.69;;;11.53;37.63
69879;BME280;57161;43.136;24.706;2023-02-17T08:25:33;100130.66;;;11.94;38.10
69879;BME280;57161;43.136;24.706;2023-02-17T08:27:59;100131.56;;;12.34;36.32
69879;BME280;57161;43.136;24.706;2023-02-17T08:30:25;100119.16;;;12.29;36.72
69879;BME280;57161;43.136;24.706;2023-02-17T08:32:50;100132.94;;;12.59;35.11
69879;BME280;57161;43.136;24.706;2023-02-17T08:35:16;100124.53;;;12.59;35.11
69879;BME280;57161;43.136;24.706;2023-02-17T08:37:48;100125.09;;;12.84;34.59
69879;BME280;57161;43.136;24.706;2023-02-17T08:40:14;100123.81;;;12.99;33.82
69879;BME280;57161;43.136;24.706;2023-02-17T08:42:39;100133.09;;;13.07;34.20
69879;BME280;57161;43.136;24.706;2023-02-17T08:45:05;100127.59;;;13.14;33.44
69879;BME280;57161;43.136;24.706;2023-02-17T08:47:31;100124.94;;;13.22;32.88
69879;BME280;57161;43.136;24.706;2023-02-17T08:49:56;100108.19;;;13.30;32.79
69879;BME280;57161;43.136;24.706;2023-02-17T08:52:24;100125.56;;;13.55;32.42
69879;BME280;57161;43.136;24.706;2023-02-17T08:54:49;100119.81;;;13.47;32.48
69879;BME280;57161;43.136;24.706;2023-02-17T08:57:16;100130.97;;;13.52;32.39
69879;BME280;57161;43.136;24.706;2023-02-17T08:59:43;100121.03;;;13.51;33.10
69879;BME280;57161;43.136;24.706;2023-02-17T09:02:12;100129.63;;;13.67;32.33
69879;BME280;57161;43.136;24.706;2023-02-17T09:04:38;100140.31;;;13.68;31.66
69879;BME280;57161;43.136;24.706;2023-02-17T09:07:03;100123.22;;;13.66;31.96
69879;BME280;57161;43.136;24.706;2023-02-17T09:09:29;100137.25;;;13.79;32.40
69879;BME280;57161;43.136;24.706;2023-02-17T09:11:57;100138.09;;;13.88;31.95
69879;BME280;57161;43.136;24.706;2023-02-17T09:14:23;100140.44;;;13.97;31.57
69879;BME280;57161;43.136;24.706;2023-02-17T09:16:53;100145.66;;;13.93;32.00
69879;BME280;57161;43.136;24.706;2023-02-17T09:19:19;100146.59;;;13.95;31.66
69879;BME280;57161;43.136;24.706;2023-02-17T09:21:44;100138.94;;;13.96;31.91
69879;BME280;57161;43.136;24.706;2023-02-17T09:24:10;100142.38;;;14.02;31.05
69879;BME280;57161;43.136;24.706;2023-02-17T09:26:36;100146.38;;;14.06;31.55
69879;BME280;57161;43.136;24.706;2023-02-17T09:29:03;100145.81;;;14.08;31.30
69879;BME280;57161;43.136;24.706;2023-02-17T09:31:29;100129.56;;;14.14;31.61
69879;BME280;57161;43.136;24.706;2023-02-17T09:33:56;100133.63;;;14.26;31.91
69879;BME280;57161;43.136;24.706;2023-02-17T09:36:25;100128.41;;;14.30;31.65
69879;BME280;57161;43.136;24.706;2023-02-17T09:38:52;100111.34;;;14.28;31.95
69879;BME280;57161;43.136;24.706;2023-02-17T09:41:26;100122.75;;;14.44;31.90
69879;BME280;57161;43.136;24.706;2023-02-17T09:43:54;100124.47;;;14.47;31.60
69879;BME280;57161;43.136;24.706;2023-02-17T09:46:27;100128.78;;;14.48;31.84
69879;BME280;57161;43.136;24.706;2023-02-17T09:48:58;100114.53;;;14.46;31.54
69879;BME280;57161;43.136;24.706;2023-02-17T09:51:33;100118.31;;;14.48;32.10
69879;BME280;57161;43.136;24.706;2023-02-17T09:54:09;100124.41;;;14.60;31.38
69879;BME280;57161;43.136;24.706;2023-02-17T09:56:41;100055.31;;;14.30;32.02
69879;BME280;57161;43.136;24.706;2023-02-17T10:01:58;100069.09;;;14.62;32.08
69879;BME280;57161;43.136;24.706;2023-02-17T10:04:33;100088.34;;;14.79;32.55
69879;BME280;57161;43.136;24.706;2023-02-17T10:07:06;100099.88;;;14.89;32.17
69879;BME280;57161;43.136;24.706;2023-02-17T10:09:43;100101.47;;;15.05;32.27
69879;BME280;57161;43.136;24.706;2023-02-17T10:12:18;100084.09;;;15.14;31.61
69879;BME280;57161;43.136;24.706;2023-02-17T10:14:52;100078.22;;;15.12;32.41
69879;BME280;57161;43.136;24.706;2023-02-17T10:17:27;100079.59;;;15.19;32.26
69879;BME280;57161;43.136;24.706;2023-02-17T10:20:21;100077.22;;;15.30;32.47
69879;BME280;57161;43.136;24.706;2023-02-17T10:22:55;100074.41;;;15.30;32.11
69879;BME280;57161;43.136;24.706;2023-02-17T10:28:21;100062.59;;;15.40;32.17
69879;BME280;57161;43.136;24.706;2023-02-17T10:31:02;100054.53;;;15.36;32.44
69879;BME280;57161;43.136;24.706;2023-02-17T10:33:35;100073.34;;;15.56;31.97
69879;BME280;57161;43.136;24.706;2023-02-17T10:39:10;100061.41;;;15.64;31.85
69879;BME280;57161;43.136;24.706;2023-02-17T10:41:38;100047.25;;;15.56;31.73
69879;BME280;57161;43.136;24.706;2023-02-17T10:44:12;100057.28;;;15.65;31.98
69879;BME280;57161;43.136;24.706;2023-02-17T10:46:41;100047.88;;;15.62;31.58
69879;BME280;57161;43.136;24.706;2023-02-17T10:49:34;100038.22;;;15.50;32.12
69879;BME280;57161;43.136;24.706;2023-02-17T10:52:02;100043.56;;;15.76;32.17
69879;BME280;57161;43.136;24.706;2023-02-17T10:54:37;100044.75;;;15.96;32.60
69879;BME280;57161;43.136;24.706;2023-02-17T10:57:07;100032.72;;;15.88;32.52
69879;BME280;57161;43.136;24.706;2023-02-17T10:59:38;100040.78;;;15.91;32.95
69879;BME280;57161;43.136;24.706;2023-02-17T11:04:47;100027.81;;;15.88;32.99
69879;BME280;57161;43.136;24.706;2023-02-17T11:07:15;100033.09;;;15.84;32.58
69879;BME280;57161;43.136;24.706;2023-02-17T11:09:48;100030.84;;;15.98;33.08
69879;BME280;57161;43.136;24.706;2023-02-17T11:12:22;100032.53;;;15.94;33.30
69879;BME280;57161;43.136;24.706;2023-02-17T11:14:52;100042.69;;;16.04;33.91
69879;BME280;57161;43.136;24.706;2023-02-17T11:17:26;100030.09;;;16.05;33.62
69879;BME280;57161;43.136;24.706;2023-02-17T11:20:01;100040.81;;;15.99;33.36
69879;BME280;57161;43.136;24.706;2023-02-17T11:24:59;100035.19;;;15.99;34.20
69879;BME280;57161;43.136;24.706;2023-02-17T11:27:25;100017.31;;;16.04;33.56
69879;BME280;57161;43.136;24.706;2023-02-17T11:29:51;100038.75;;;16.07;33.50
69879;BME280;57161;43.136;24.706;2023-02-17T11:32:17;100030.28;;;16.07;33.26
69879;BME280;57161;43.136;24.706;2023-02-17T11:34:55;100046.84;;;16.18;33.40
69879;BME280;57161;43.136;24.706;2023-02-17T11:37:23;100009.44;;;16.03;33.03
69879;BME280;57161;43.136;24.706;2023-02-17T11:39:50;100035.56;;;16.18;33.24
69879;BME280;57161;43.136;24.706;2023-02-17T11:42:26;100035.75;;;16.13;33.03
69879;BME280;57161;43.136;24.706;2023-02-17T11:44:53;100039.69;;;16.02;33.07
69879;BME280;57161;43.136;24.706;2023-02-17T11:50:26;100043.63;;;15.99;31.89
69879;BME280;57161;43.136;24.706;2023-02-17T11:56:07;100024.84;;;16.25;32.79
69879;BME280;57161;43.136;24.706;2023-02-17T11:58:41;100020.88;;;16.50;32.33
69879;BME280;57161;43.136;24.706;2023-02-17T12:01:27;100026.88;;;16.62;32.11
69879;BME280;57161;43.136;24.706;2023-02-17T12:04:10;100028.00;;;16.59;32.51
69879;BME280;57161;43.136;24.706;2023-02-17T12:12:08;100020.50;;;16.62;31.02
69879;BME280;57161;43.136;24.706;2023-02-17T12:23:23;100018.63;;;16.34;31.84
69879;BME280;57161;43.136;24.706;2023-02-17T12:35:02;99986.50;;;16.29;31.44
69879;BME280;57161;43.136;24.706;2023-02-17T12:37:33;100008.31;;;16.29;31.71
69879;BME280;57161;43.136;24.706;2023-02-17T12:40:15;99982.00;;;16.18;31.17
69879;BME280;57161;43.136;24.706;2023-02-17T12:42:55;99999.84;;;16.06;31.64
69879;BME280;57161;43.136;24.706;2023-02-17T12:45:34;100018.06;;;15.97;32.05
69879;BME280;57161;43.136;24.706;2023-02-17T12:48:09;100002.66;;;16.06;32.27
69879;BME280;57161;43.136;24.706;2023-02-17T12:50:42;99999.28;;;16.07;32.47
69879;BME280;57161;43.136;24.706;2023-02-17T12:53:22;100000.78;;;16.16;32.27
69879;BME280;57161;43.136;24.706;2023-02-17T12:55:56;100011.88;;;16.21;31.84
69879;BME280;57161;43.136;24.706;2023-02-17T12:58:27;100019.97;;;16.17;31.42
69879;BME280;57161;43.136;24.706;2023-02-17T13:01:02;100018.66;;;16.18;32.08
69879;BME280;57161;43.136;24.706;2023-02-17T13:03:31;100001.53;;;16.16;33.05
69879;BME280;57161;43.136;24.706;2023-02-17T13:08:48;100014.69;;;16.21;32.86
69879;BME280;57161;43.136;24.706;2023-02-17T13:11:31;100032.94;;;16.20;33.05
69879;BME280;57161;43.136;24.706;2023-02-17T13:14:25;100009.22;;;16.08;33.34
69879;BME280;57161;43.136;24.706;2023-02-17T13:16:52;99991.41;;;15.98;33.12
69879;BME280;57161;43.136;24.706;2023-02-17T13:19:29;100028.22;;;16.15;33.02
69879;BME280;57161;43.136;24.706;2023-02-17T13:21:56;100011.66;;;15.74;32.94
69879;BME280;57161;43.136;24.706;2023-02-17T13:24:34;100022.38;;;15.83;33.11
69879;BME280;57161;43.136;24.706;2023-02-17T13:27:12;100014.88;;;15.85;33.12
69879;BME280;57161;43.136;24.706;2023-02-17T13:29:44;100009.44;;;15.95;33.40
69879;BME280;57161;43.136;24.706;2023-02-17T13:32:10;100003.59;;;16.01;33.24
69879;BME280;57161;43.136;24.706;2023-02-17T13:34:39;99996.06;;;15.88;32.64
69879;BME280;57161;43.136;24.706;2023-02-17T13:39:41;100005.50;;;15.98;31.91
69879;BME280;57161;43.136;24.706;2023-02-17T13:42:34;100007.50;;;15.75;32.39
69879;BME280;57161;43.136;24.706;2023-02-17T13:45:09;100006.75;;;15.74;32.71
69879;BME280;57161;43.136;24.706;2023-02-17T13:47:35;100014.47;;;15.74;32.82
69879;BME280;57161;43.136;24.706;2023-02-17T13:50:03;99996.22;;;15.59;32.71
69879;BME280;57161;43.136;24.706;2023-02-17T13:52:30;100009.94;;;15.63;32.79
69879;BME280;57161;43.136;24.706;2023-02-17T13:55:01;100006.91;;;15.61;33.21
69879;BME280;57161;43.136;24.706;2023-02-17T13:57:32;100004.88;;;15.77;33.12
69879;BME280;57161;43.136;24.706;2023-02-17T14:00:25;99992.88;;;15.84;33.19
69879;BME280;57161;43.136;24.706;2023-02-17T14:03:11;99992.50;;;15.87;33.13
69879;BME280;57161;43.136;24.706;2023-02-17T14:05:43;99989.31;;;15.83;32.70
69879;BME280;57161;43.136;24.706;2023-02-17T14:08:18;99989.69;;;15.80;33.08